sensor_id;sensor_type;location;lat;lon;timestamp;pressure;altitude;pressure_sealevel;temperature;humidity
10079;BME280;5078;42.544;22.966;2023-10-31T00:01:06;94153.00;;;8.34;100.00
10079;BME280;5078;42.544;22.966;2023-10-31T00:03:33;94144.63;;;8.39;100.00
10079;BME280;5078;42.544;22.966;2023-10-31T00:06:01;94138.22;;;8.41;100.00
10079;BME280;5078;42.544;22.966;2023-10-31T00:08:27;94147.66;;;8.26;100.00
10079;BME280;5078;42.544;22.966;2023-10-31T00:10:54;94146.25;;;8.14;100.00
10079;BME280;5078;42.544;22.966;2023-10-31T00:13:21;94142.97;;;7.94;100.00
10079;BME280;5078;42.544;22.966;2023-10-31T00:15:47;94141.47;;;7.91;100.00
10079;BME280;5078;42.544;22.966;2023-10-31T00:18:14;94140.94;;;7.70;100.00
10079;BME280;5078;42.544;22.966;2023-10-31T00:20:41;94139.06;;;7.62;100.00
10079;BME280;5078;42.544;22.966;2023-10-31T00:23:09;94139.94;;;7.35;100.00
10079;BME280;5078;42.544;22.966;2023-10-31T00:25:36;94150.03;;;7.22;100.00
10079;BME280;5078;42.544;22.966;2023-10-31T00:28:03;94125.13;;;7.52;100.00
10079;BME280;5078;42.544;22.966;2023-10-31T00:30:29;94139.31;;;7.69;100.00
10079;BME280;5078;42.544;22.966;2023-10-31T00:32:56;94143.22;;;7.65;100.00
10079;BME280;5078;42.544;22.966;2023-10-31T00:35:23;94135.50;;;7.53;100.00
10079;BME280;5078;42.544;22.966;2023-10-31T00:37:49;94141.63;;;7.72;100.00
10079;BME280;5078;42.544;22.966;2023-10-31T00:40:17;94138.31;;;7.70;100.00
10079;BME280;5078;42.544;22.966;2023-10-31T00:42:44;94100.44;;;7.61;100.00
10079;BME280;5078;42.544;22.966;2023-10-31T00:45:11;94137.66;;;8.12;100.00
10079;BME280;5078;42.544;22.966;2023-10-31T00:47:37;94126.84;;;8.23;100.00
10079;BME280;5078;42.544;22.966;2023-10-31T00:50:05;94132.94;;;8.41;100.00
10079;BME280;5078;42.544;22.966;2023-10-31T00:52:32;94122.72;;;8.47;100.00
10079;BME280;5078;42.544;22.966;2023-10-31T00:54:58;94120.13;;;8.55;100.00
10079;BME280;5078;42.544;22.966;2023-10-31T00:57:27;94117.97;;;8.58;100.00
10079;BME280;5078;42.544;22.966;2023-10-31T00:59:53;94114.84;;;8.55;100.00
10079;BME280;5078;42.544;22.966;2023-10-31T01:02:20;94118.66;;;8.34;100.00
10079;BME280;5078;42.544;22.966;2023-10-31T01:04:47;94103.41;;;8.28;100.00
10079;BME280;5078;42.544;22.966;2023-10-31T01:07:13;94110.56;;;8.10;100.00
10079;BME280;5078;42.544;22.966;2023-10-31T01:09:42;94109.34;;;7.60;100.00
10079;BME280;5078;42.544;22.966;2023-10-31T01:12:09;94116.72;;;7.39;100.00
10079;BME280;5078;42.544;22.966;2023-10-31T01:14:37;94110.31;;;7.05;100.00
10079;BME280;5078;42.544;22.966;2023-10-31T01:17:04;94108.31;;;7.35;100.00
10079;BME280;5078;42.544;22.966;2023-10-31T01:19:31;94096.84;;;7.44;100.00
10079;BME280;5078;42.544;22.966;2023-10-31T01:21:57;94100.22;;;7.19;100.00
10079;BME280;5078;42.544;22.966;2023-10-31T01:24:24;94093.59;;;7.50;100.00
10079;BME280;5078;42.544;22.966;2023-10-31T01:26:51;94070.09;;;7.39;100.00
10079;BME280;5078;42.544;22.966;2023-10-31T01:29:18;94098.50;;;7.45;100.00
10079;BME280;5078;42.544;22.966;2023-10-31T01:31:46;94083.34;;;7.47;100.00
10079;BME280;5078;42.544;22.966;2023-10-31T01:34:13;94100.56;;;7.51;100.00
10079;BME280;5078;42.544;22.966;2023-10-31T01:36:39;94079.91;;;7.29;100.00
10079;BME280;5078;42.544;22.966;2023-10-31T01:39:06;94090.97;;;7.50;100.00
10079;BME280;5078;42.544;22.966;2023-10-31T01:41:33;94092.34;;;7.37;100.00
10079;BME280;5078;42.544;22.966;2023-10-31T01:44:00;94096.75;;;7.36;100.00
10079;BME280;5078;42.544;22.966;2023-10-31T01:46:26;94101.06;;;7.19;100.00
10079;BME280;5078;42.544;22.966;2023-10-31T01:48:54;94102.97;;;7.27;100.00
10079;BME280;5078;42.544;22.966;2023-10-31T01:51:21;94097.44;;;6.75;100.00
10079;BME280;5078;42.544;22.966;2023-10-31T01:53:48;94087.84;;;7.01;100.00
10079;BME280;5078;42.544;22.966;2023-10-31T01:56:15;94088.78;;;7.28;100.00
10079;BME280;5078;42.544;22.966;2023-10-31T01:58:42;94090.66;;;7.00;100.00
10079;BME280;5078;42.544;22.966;2023-10-31T02:01:09;94085.69;;;7.15;100.00
10079;BME280;5078;42.544;22.966;2023-10-31T02:03:35;94086.50;;;7.15;100.00
10079;BME280;5078;42.544;22.966;2023-10-31T02:06:05;94088.25;;;7.06;100.00
10079;BME280;5078;42.544;22.966;2023-10-31T02:08:32;94079.69;;;6.77;100.00
10079;BME280;5078;42.544;22.966;2023-10-31T02:10:59;94078.75;;;7.13;100.00
10079;BME280;5078;42.544;22.966;2023-10-31T02:13:25;94090.28;;;7.12;100.00
10079;BME280;5078;42.544;22.966;2023-10-31T02:15:52;94082.22;;;7.14;100.00
10079;BME280;5078;42.544;22.966;2023-10-31T02:18:19;94080.03;;;7.09;100.00
10079;BME280;5078;42.544;22.966;2023-10-31T02:20:46;94069.63;;;6.90;100.00
10079;BME280;5078;42.544;22.966;2023-10-31T02:23:15;94067.31;;;7.05;100.00
10079;BME280;5078;42.544;22.966;2023-10-31T02:25:41;94076.03;;;6.22;100.00
10079;BME280;5078;42.544;22.966;2023-10-31T02:28:08;94084.66;;;6.52;100.00
10079;BME280;5078;42.544;22.966;2023-10-31T02:30:35;94085.75;;;6.59;100.00
10079;BME280;5078;42.544;22.966;2023-10-31T02:33:02;94093.41;;;6.43;100.00
10079;BME280;5078;42.544;22.966;2023-10-31T02:35:28;94082.59;;;6.09;100.00
10079;BME280;5078;42.544;22.966;2023-10-31T02:37:55;94073.38;;;6.32;100.00
10079;BME280;5078;42.544;22.966;2023-10-31T02:40:23;94069.84;;;6.41;100.00
10079;BME280;5078;42.544;22.966;2023-10-31T02:42:50;94071.63;;;6.13;100.00
10079;BME280;5078;42.544;22.966;2023-10-31T02:45:17;94051.13;;;6.17;100.00
10079;BME280;5078;42.544;22.966;2023-10-31T02:47:44;94059.97;;;6.53;100.00
10079;BME280;5078;42.544;22.966;2023-10-31T02:50:10;94058.22;;;6.72;100.00
10079;BME280;5078;42.544;22.966;2023-10-31T02:52:37;94074.34;;;6.59;100.00
10079;BME280;5078;42.544;22.966;2023-10-31T02:55:04;94066.53;;;6.49;100.00
10079;BME280;5078;42.544;22.966;2023-10-31T02:57:32;94066.78;;;6.46;100.00
10079;BME280;5078;42.544;22.966;2023-10-31T02:59:59;94066.78;;;6.46;100.00
10079;BME280;5078;42.544;22.966;2023-10-31T03:02:26;94060.69;;;6.08;100.00
10079;BME280;5078;42.544;22.966;2023-10-31T03:04:53;94065.16;;;5.98;100.00
10079;BME280;5078;42.544;22.966;2023-10-31T03:07:20;94062.38;;;6.09;100.00
10079;BME280;5078;42.544;22.966;2023-10-31T03:09:46;94051.72;;;5.81;100.00
10079;BME280;5078;42.544;22.966;2023-10-31T03:12:13;94068.69;;;5.50;100.00
10079;BME280;5078;42.544;22.966;2023-10-31T03:14:42;94062.63;;;5.20;100.00
10079;BME280;5078;42.544;22.966;2023-10-31T03:17:09;94059.72;;;5.23;100.00
10079;BME280;5078;42.544;22.966;2023-10-31T03:19:35;94051.53;;;5.26;100.00
10079;BME280;5078;42.544;22.966;2023-10-31T03:22:02;94053.63;;;5.32;100.00
10079;BME280;5078;42.544;22.966;2023-10-31T03:24:29;94063.44;;;5.40;100.00
10079;BME280;5078;42.544;22.966;2023-10-31T03:26:55;94060.94;;;5.38;100.00
10079;BME280;5078;42.544;22.966;2023-10-31T03:29:22;94057.38;;;5.39;100.00
10079;BME280;5078;42.544;22.966;2023-10-31T03:31:50;94040.19;;;5.55;100.00
10079;BME280;5078;42.544;22.966;2023-10-31T03:34:17;94048.75;;;5.67;100.00
10079;BME280;5078;42.544;22.966;2023-10-31T03:36:43;94053.13;;;5.86;100.00
10079;BME280;5078;42.544;22.966;2023-10-31T03:39:10;94058.97;;;5.79;100.00
10079;BME280;5078;42.544;22.966;2023-10-31T03:41:37;94049.38;;;5.98;100.00
10079;BME280;5078;42.544;22.966;2023-10-31T03:44:04;94043.63;;;6.22;100.00
10079;BME280;5078;42.544;22.966;2023-10-31T03:46:31;94036.00;;;6.19;100.00
10079;BME280;5078;42.544;22.966;2023-10-31T03:48:59;94036.50;;;5.85;100.00
10079;BME280;5078;42.544;22.966;2023-10-31T03:51:25;94037.50;;;6.21;100.00
10079;BME280;5078;42.544;22.966;2023-10-31T03:53:52;94036.28;;;6.16;100.00
10079;BME280;5078;42.544;22.966;2023-10-31T03:56:19;94024.25;;;6.13;100.00
10079;BME280;5078;42.544;22.966;2023-10-31T03:58:45;94026.22;;;6.01;100.00
10079;BME280;5078;42.544;22.966;2023-10-31T04:01:11;94024.44;;;5.92;100.00
10079;BME280;5078;42.544;22.966;2023-10-31T04:03:38;94033.97;;;5.93;100.00
10079;BME280;5078;42.544;22.966;2023-10-31T04:06:06;94040.69;;;5.68;100.00
10079;BME280;5078;42.544;22.966;2023-10-31T04:08:33;94034.72;;;5.76;100.00
10079;BME280;5078;42.544;22.966;2023-10-31T04:11:00;94026.25;;;5.92;100.00
10079;BME280;5078;42.544;22.966;2023-10-31T04:13:26;94038.63;;;5.72;100.00
10079;BME280;5078;42.544;22.966;2023-10-31T04:15:53;94026.75;;;5.38;100.00
10079;BME280;5078;42.544;22.966;2023-10-31T04:18:20;94020.09;;;5.54;100.00
10079;BME280;5078;42.544;22.966;2023-10-31T04:20:46;94014.00;;;5.63;100.00
10079;BME280;5078;42.544;22.966;2023-10-31T04:23:14;94014.78;;;5.73;100.00
10079;BME280;5078;42.544;22.966;2023-10-31T04:25:41;94021.81;;;5.92;100.00
10079;BME280;5078;42.544;22.966;2023-10-31T04:28:08;94020.09;;;6.11;100.00
10079;BME280;5078;42.544;22.966;2023-10-31T04:30:34;94023.38;;;6.22;100.00
10079;BME280;5078;42.544;22.966;2023-10-31T04:33:01;94026.38;;;6.00;100.00
10079;BME280;5078;42.544;22.966;2023-10-31T04:35:28;94033.13;;;5.46;100.00
10079;BME280;5078;42.544;22.966;2023-10-31T04:37:54;94022.59;;;5.46;100.00
10079;BME280;5078;42.544;22.966;2023-10-31T04:40:23;94034.91;;;5.55;100.00
10079;BME280;5078;42.544;22.966;2023-10-31T04:42:50;94027.91;;;4.87;100.00
10079;BME280;5078;42.544;22.966;2023-10-31T04:45:17;94034.94;;;5.06;100.00
10079;BME280;5078;42.544;22.966;2023-10-31T04:47:43;94032.47;;;5.05;100.00
10079;BME280;5078;42.544;22.966;2023-10-31T04:50:10;94025.28;;;5.07;100.00
10079;BME280;5078;42.544;22.966;2023-10-31T04:52:37;94032.72;;;5.21;100.00
10079;BME280;5078;42.544;22.966;2023-10-31T04:55:04;94030.91;;;5.22;100.00
10079;BME280;5078;42.544;22.966;2023-10-31T04:57:33;94026.25;;;5.15;100.00
10079;BME280;5078;42.544;22.966;2023-10-31T04:59:59;94023.16;;;5.49;100.00
10079;BME280;5078;42.544;22.966;2023-10-31T05:02:26;94010.44;;;5.54;100.00
10079;BME280;5078;42.544;22.966;2023-10-31T05:04:54;94030.03;;;5.79;100.00
10079;BME280;5078;42.544;22.966;2023-10-31T05:07:20;94041.38;;;5.70;100.00
10079;BME280;5078;42.544;22.966;2023-10-31T05:09:47;94031.31;;;5.56;100.00
10079;BME280;5078;42.544;22.966;2023-10-31T05:12:14;94034.94;;;5.45;100.00
10079;BME280;5078;42.544;22.966;2023-10-31T05:14:42;94036.03;;;5.52;100.00
10079;BME280;5078;42.544;22.966;2023-10-31T05:17:08;94031.03;;;5.59;100.00
10079;BME280;5078;42.544;22.966;2023-10-31T05:19:35;94039.66;;;5.12;100.00
10079;BME280;5078;42.544;22.966;2023-10-31T05:22:02;94031.47;;;5.35;100.00
10079;BME280;5078;42.544;22.966;2023-10-31T05:24:29;94029.66;;;5.55;100.00
10079;BME280;5078;42.544;22.966;2023-10-31T05:26:57;94032.13;;;5.66;100.00
10079;BME280;5078;42.544;22.966;2023-10-31T05:29:24;94051.94;;;4.83;100.00
10079;BME280;5078;42.544;22.966;2023-10-31T05:31:52;94022.09;;;5.13;100.00
10079;BME280;5078;42.544;22.966;2023-10-31T05:34:18;94057.22;;;4.92;100.00
10079;BME280;5078;42.544;22.966;2023-10-31T05:36:45;94052.38;;;5.17;100.00
10079;BME280;5078;42.544;22.966;2023-10-31T05:39:12;94062.31;;;4.94;100.00
10079;BME280;5078;42.544;22.966;2023-10-31T05:41:39;94057.38;;;5.39;100.00
10079;BME280;5078;42.544;22.966;2023-10-31T05:44:05;94064.97;;;5.52;100.00
10079;BME280;5078;42.544;22.966;2023-10-31T05:46:37;94068.13;;;5.36;100.00
10079;BME280;5078;42.544;22.966;2023-10-31T05:49:06;94058.06;;;6.08;100.00
10079;BME280;5078;42.544;22.966;2023-10-31T05:51:33;94053.59;;;6.74;100.00
10079;BME280;5078;42.544;22.966;2023-10-31T05:54:01;94061.50;;;7.37;100.00
10079;BME280;5078;42.544;22.966;2023-10-31T05:56:27;94061.72;;;7.62;100.00
10079;BME280;5078;42.544;22.966;2023-10-31T05:58:54;94064.00;;;7.83;100.00
10079;BME280;5078;42.544;22.966;2023-10-31T06:01:21;94079.63;;;7.76;100.00
10079;BME280;5078;42.544;22.966;2023-10-31T06:03:47;94090.81;;;7.70;100.00
10079;BME280;5078;42.544;22.966;2023-10-31T06:06:15;94096.09;;;7.34;100.00
10079;BME280;5078;42.544;22.966;2023-10-31T06:08:42;94087.56;;;7.04;100.00
10079;BME280;5078;42.544;22.966;2023-10-31T06:11:09;94083.66;;;7.44;100.00
10079;BME280;5078;42.544;22.966;2023-10-31T06:13:38;94090.66;;;7.35;100.00
10079;BME280;5078;42.544;22.966;2023-10-31T06:16:05;94080.88;;;8.16;100.00
10079;BME280;5078;42.544;22.966;2023-10-31T06:18:33;94064.16;;;8.33;100.00
10079;BME280;5078;42.544;22.966;2023-10-31T06:21:00;94065.47;;;8.29;100.00
10079;BME280;5078;42.544;22.966;2023-10-31T06:23:28;94073.22;;;8.49;100.00
10079;BME280;5078;42.544;22.966;2023-10-31T06:25:54;94075.06;;;8.99;100.00
10079;BME280;5078;42.544;22.966;2023-10-31T06:28:21;94089.66;;;9.27;100.00
10079;BME280;5078;42.544;22.966;2023-10-31T06:30:48;94081.44;;;9.39;94.91
10079;BME280;5078;42.544;22.966;2023-10-31T06:33:14;94089.91;;;7.79;100.00
10079;BME280;5078;42.544;22.966;2023-10-31T06:35:41;94086.59;;;8.98;94.98
10079;BME280;5078;42.544;22.966;2023-10-31T06:38:08;94080.13;;;9.51;90.77
10079;BME280;5078;42.544;22.966;2023-10-31T06:40:36;94076.59;;;9.26;90.35
10079;BME280;5078;42.544;22.966;2023-10-31T06:43:02;94085.34;;;8.68;99.91
10079;BME280;5078;42.544;22.966;2023-10-31T06:45:29;94084.25;;;9.94;91.43
10079;BME280;5078;42.544;22.966;2023-10-31T06:47:56;94078.13;;;10.83;81.78
10079;BME280;5078;42.544;22.966;2023-10-31T06:50:22;94073.44;;;10.53;82.14
10079;BME280;5078;42.544;22.966;2023-10-31T06:52:49;94071.84;;;10.11;87.75
10079;BME280;5078;42.544;22.966;2023-10-31T06:55:16;94066.38;;;10.77;83.85
10079;BME280;5078;42.544;22.966;2023-10-31T06:57:44;94063.03;;;10.35;86.36
10079;BME280;5078;42.544;22.966;2023-10-31T07:00:11;94072.38;;;10.71;90.12
10079;BME280;5078;42.544;22.966;2023-10-31T07:02:38;94064.69;;;11.23;83.10
10079;BME280;5078;42.544;22.966;2023-10-31T07:05:05;94057.91;;;11.44;83.38
10079;BME280;5078;42.544;22.966;2023-10-31T07:07:32;94055.66;;;11.01;89.78
10079;BME280;5078;42.544;22.966;2023-10-31T07:09:59;94050.00;;;12.05;84.15
10079;BME280;5078;42.544;22.966;2023-10-31T07:12:25;94050.41;;;12.32;79.41
10079;BME280;5078;42.544;22.966;2023-10-31T07:14:53;94046.75;;;12.62;79.14
10079;BME280;5078;42.544;22.966;2023-10-31T07:17:20;94042.09;;;13.30;72.00
10079;BME280;5078;42.544;22.966;2023-10-31T07:19:47;94047.06;;;13.33;72.30
10079;BME280;5078;42.544;22.966;2023-10-31T07:22:13;94034.78;;;14.25;69.61
10079;BME280;5078;42.544;22.966;2023-10-31T07:24:40;94030.97;;;13.85;69.84
10079;BME280;5078;42.544;22.966;2023-10-31T07:27:08;94035.16;;;14.50;69.46
10079;BME280;5078;42.544;22.966;2023-10-31T07:29:34;94029.41;;;14.81;66.27
10079;BME280;5078;42.544;22.966;2023-10-31T07:32:03;94036.59;;;14.81;67.56
10079;BME280;5078;42.544;22.966;2023-10-31T07:34:29;94025.78;;;15.57;59.72
10079;BME280;5078;42.544;22.966;2023-10-31T07:36:56;94026.81;;;14.95;62.77
10079;BME280;5078;42.544;22.966;2023-10-31T07:39:23;94021.44;;;15.36;62.48
10079;BME280;5078;42.544;22.966;2023-10-31T07:41:50;94019.53;;;15.23;63.91
10079;BME280;5078;42.544;22.966;2023-10-31T07:44:17;94010.22;;;16.27;60.23
10079;BME280;5078;42.544;22.966;2023-10-31T07:46:43;94017.03;;;16.10;58.89
10079;BME280;5078;42.544;22.966;2023-10-31T07:49:12;94008.41;;;16.01;62.07
10079;BME280;5078;42.544;22.966;2023-10-31T07:51:38;93998.94;;;15.92;63.66
10079;BME280;5078;42.544;22.966;2023-10-31T07:54:05;94004.19;;;16.72;58.69
10079;BME280;5078;42.544;22.966;2023-10-31T07:56:34;94002.47;;;17.11;57.27
10079;BME280;5078;42.544;22.966;2023-10-31T07:59:02;93992.00;;;17.02;57.24
10079;BME280;5078;42.544;22.966;2023-10-31T08:01:28;93991.38;;;17.45;56.15
10079;BME280;5078;42.544;22.966;2023-10-31T08:03:55;93985.19;;;17.45;56.58
10079;BME280;5078;42.544;22.966;2023-10-31T08:06:23;93979.72;;;18.22;52.87
10079;BME280;5078;42.544;22.966;2023-10-31T08:08:50;93979.69;;;18.47;52.70
10079;BME280;5078;42.544;22.966;2023-10-31T08:11:17;93970.16;;;18.69;51.88
10079;BME280;5078;42.544;22.966;2023-10-31T08:13:43;93970.38;;;18.93;50.44
10079;BME280;5078;42.544;22.966;2023-10-31T08:16:10;93957.44;;;17.96;53.48
10079;BME280;5078;42.544;22.966;2023-10-31T08:18:42;93961.09;;;18.89;51.28
10079;BME280;5078;42.544;22.966;2023-10-31T08:21:09;93960.41;;;18.75;52.18
10079;BME280;5078;42.544;22.966;2023-10-31T08:23:39;93959.88;;;19.70;49.46
10079;BME280;5078;42.544;22.966;2023-10-31T08:26:05;93949.53;;;20.21;47.44
10079;BME280;5078;42.544;22.966;2023-10-31T08:28:32;93932.59;;;20.79;46.12
10079;BME280;5078;42.544;22.966;2023-10-31T08:30:59;93937.63;;;20.40;46.90
10079;BME280;5078;42.544;22.966;2023-10-31T08:33:26;93939.88;;;20.55;47.00
10079;BME280;5078;42.544;22.966;2023-10-31T08:35:52;93936.78;;;20.28;48.39
10079;BME280;5078;42.544;22.966;2023-10-31T08:38:19;93930.22;;;20.00;48.95
10079;BME280;5078;42.544;22.966;2023-10-31T08:40:47;93914.91;;;20.60;47.38
10079;BME280;5078;42.544;22.966;2023-10-31T08:43:14;93915.47;;;21.14;45.44
10079;BME280;5078;42.544;22.966;2023-10-31T08:45:41;93914.72;;;21.42;44.61
10079;BME280;5078;42.544;22.966;2023-10-31T08:48:07;93906.16;;;21.62;43.74
10079;BME280;5078;42.544;22.966;2023-10-31T08:50:34;93904.63;;;21.38;43.83
10079;BME280;5078;42.544;22.966;2023-10-31T08:53:01;93894.97;;;21.13;44.35
10079;BME280;5078;42.544;22.966;2023-10-31T08:55:28;93902.47;;;20.82;44.90
10079;BME280;5078;42.544;22.966;2023-10-31T08:57:56;93890.78;;;21.05;44.44
10079;BME280;5078;42.544;22.966;2023-10-31T09:00:22;93885.41;;;20.94;44.98
10079;BME280;5078;42.544;22.966;2023-10-31T09:02:50;93880.63;;;21.24;43.69
10079;BME280;5078;42.544;22.966;2023-10-31T09:05:17;93873.69;;;21.00;43.87
10079;BME280;5078;42.544;22.966;2023-10-31T09:07:43;93869.91;;;21.13;43.71
10079;BME280;5078;42.544;22.966;2023-10-31T09:10:12;93869.69;;;21.60;43.27
10079;BME280;5078;42.544;22.966;2023-10-31T09:12:38;93863.97;;;21.56;42.68
10079;BME280;5078;42.544;22.966;2023-10-31T09:15:07;93862.09;;;21.73;41.78
10079;BME280;5078;42.544;22.966;2023-10-31T09:17:34;93843.00;;;21.46;42.99
10079;BME280;5078;42.544;22.966;2023-10-31T09:20:01;93843.94;;;21.69;41.85
10079;BME280;5078;42.544;22.966;2023-10-31T09:22:28;93848.28;;;21.87;41.32
10079;BME280;5078;42.544;22.966;2023-10-31T09:24:55;93837.06;;;21.78;41.34
10079;BME280;5078;42.544;22.966;2023-10-31T09:27:22;93837.88;;;21.79;41.60
10079;BME280;5078;42.544;22.966;2023-10-31T09:29:48;93845.31;;;21.88;41.25
10079;BME280;5078;42.544;22.966;2023-10-31T09:32:18;93823.81;;;21.93;41.04
10079;BME280;5078;42.544;22.966;2023-10-31T09:34:45;93818.84;;;21.85;41.26
10079;BME280;5078;42.544;22.966;2023-10-31T09:37:11;93822.91;;;21.88;41.35
10079;BME280;5078;42.544;22.966;2023-10-31T09:39:38;93804.88;;;22.10;40.40
10079;BME280;5078;42.544;22.966;2023-10-31T09:42:05;93803.94;;;21.83;40.62
10079;BME280;5078;42.544;22.966;2023-10-31T09:44:33;93809.34;;;21.83;40.77
10079;BME280;5078;42.544;22.966;2023-10-31T09:47:00;93805.25;;;21.80;40.97
10079;BME280;5078;42.544;22.966;2023-10-31T09:49:29;93786.78;;;21.55;41.17
10079;BME280;5078;42.544;22.966;2023-10-31T09:51:56;93798.41;;;21.72;40.52
10079;BME280;5078;42.544;22.966;2023-10-31T09:54:25;93774.19;;;21.61;40.12
10079;BME280;5078;42.544;22.966;2023-10-31T09:56:52;93769.22;;;21.52;39.94
10079;BME280;5078;42.544;22.966;2023-10-31T09:59:19;93738.81;;;21.57;38.84
10079;BME280;5078;42.544;22.966;2023-10-31T10:01:46;93770.59;;;21.55;39.90
10079;BME280;5078;42.544;22.966;2023-10-31T10:04:13;93760.97;;;21.59;39.93
10079;BME280;5078;42.544;22.966;2023-10-31T10:06:50;93753.75;;;21.48;38.83
10079;BME280;5078;42.544;22.966;2023-10-31T10:09:17;93759.69;;;21.84;38.71
10079;BME280;5078;42.544;22.966;2023-10-31T10:11:43;93753.59;;;22.10;38.10
10079;BME280;5078;42.544;22.966;2023-10-31T10:14:11;93724.13;;;22.09;37.77
10079;BME280;5078;42.544;22.966;2023-10-31T10:16:38;93743.88;;;22.09;37.09
10079;BME280;5078;42.544;22.966;2023-10-31T10:19:23;93726.25;;;21.85;37.86
10079;BME280;5078;42.544;22.966;2023-10-31T10:21:52;93725.84;;;21.76;38.21
10079;BME280;5078;42.544;22.966;2023-10-31T10:24:20;93730.72;;;21.57;37.58
10079;BME280;5078;42.544;22.966;2023-10-31T10:26:47;93698.19;;;21.47;37.85
10079;BME280;5078;42.544;22.966;2023-10-31T10:29:14;93714.09;;;21.48;37.47
10079;BME280;5078;42.544;22.966;2023-10-31T10:31:41;93705.66;;;21.28;37.80
10079;BME280;5078;42.544;22.966;2023-10-31T10:34:09;93711.31;;;21.43;37.32
10079;BME280;5078;42.544;22.966;2023-10-31T10:36:38;93700.63;;;21.48;37.48
10079;BME280;5078;42.544;22.966;2023-10-31T10:39:07;93701.25;;;21.56;37.95
10079;BME280;5078;42.544;22.966;2023-10-31T10:41:35;93699.94;;;21.58;37.52
10079;BME280;5078;42.544;22.966;2023-10-31T10:44:04;93690.56;;;21.44;37.49
10079;BME280;5078;42.544;22.966;2023-10-31T10:46:34;93690.94;;;21.36;37.47
10079;BME280;5078;42.544;22.966;2023-10-31T10:49:04;93689.50;;;21.45;37.70
10079;BME280;5078;42.544;22.966;2023-10-31T10:51:40;93681.81;;;21.53;37.97
10079;BME280;5078;42.544;22.966;2023-10-31T10:54:16;93673.13;;;21.51;37.26
10079;BME280;5078;42.544;22.966;2023-10-31T10:56:49;93680.63;;;21.66;36.65
10079;BME280;5078;42.544;22.966;2023-10-31T10:59:21;93674.13;;;21.62;37.05
10079;BME280;5078;42.544;22.966;2023-10-31T11:01:54;93650.03;;;21.78;36.55
10079;BME280;5078;42.544;22.966;2023-10-31T11:04:21;93660.03;;;21.99;35.97
10079;BME280;5078;42.544;22.966;2023-10-31T11:06:48;93651.53;;;22.12;35.76
10079;BME280;5078;42.544;22.966;2023-10-31T11:09:17;93639.09;;;22.11;35.14
10079;BME280;5078;42.544;22.966;2023-10-31T11:11:45;93634.69;;;22.22;34.62
10079;BME280;5078;42.544;22.966;2023-10-31T11:14:15;93630.00;;;22.17;34.39
10079;BME280;5078;42.544;22.966;2023-10-31T11:16:45;93606.97;;;22.32;34.68
10079;BME280;5078;42.544;22.966;2023-10-31T11:19:15;93614.97;;;22.22;35.20
10079;BME280;5078;42.544;22.966;2023-10-31T11:21:53;93606.50;;;22.18;35.47
10079;BME280;5078;42.544;22.966;2023-10-31T11:24:22;93602.63;;;22.09;34.36
10079;BME280;5078;42.544;22.966;2023-10-31T11:26:53;93598.47;;;22.01;34.99
10079;BME280;5078;42.544;22.966;2023-10-31T11:29:20;93589.91;;;22.04;34.66
10079;BME280;5078;42.544;22.966;2023-10-31T11:31:46;93583.97;;;22.07;34.45
10079;BME280;5078;42.544;22.966;2023-10-31T11:34:16;93587.63;;;21.96;34.63
10079;BME280;5078;42.544;22.966;2023-10-31T11:36:44;93582.22;;;21.96;34.85
10079;BME280;5078;42.544;22.966;2023-10-31T11:39:12;93576.88;;;22.01;34.91
10079;BME280;5078;42.544;22.966;2023-10-31T11:41:45;93566.97;;;22.07;34.67
10079;BME280;5078;42.544;22.966;2023-10-31T11:44:15;93557.88;;;22.18;34.49
10079;BME280;5078;42.544;22.966;2023-10-31T11:46:41;93553.09;;;21.98;34.24
10079;BME280;5078;42.544;22.966;2023-10-31T11:49:08;93555.84;;;22.03;34.42
10079;BME280;5078;42.544;22.966;2023-10-31T11:51:35;93542.84;;;22.22;34.43
10079;BME280;5078;42.544;22.966;2023-10-31T11:54:02;93561.47;;;22.24;34.38
10079;BME280;5078;42.544;22.966;2023-10-31T11:56:29;93565.34;;;22.60;34.39
10079;BME280;5078;42.544;22.966;2023-10-31T11:59:02;93554.72;;;22.53;33.62
10079;BME280;5078;42.544;22.966;2023-10-31T12:01:28;93552.63;;;22.60;33.36
10079;BME280;5078;42.544;22.966;2023-10-31T12:03:55;93543.84;;;22.43;34.11
10079;BME280;5078;42.544;22.966;2023-10-31T12:06:22;93548.81;;;22.56;34.31
10079;BME280;5078;42.544;22.966;2023-10-31T12:08:49;93538.38;;;22.70;33.71
10079;BME280;5078;42.544;22.966;2023-10-31T12:11:16;93553.91;;;22.85;32.89
10079;BME280;5078;42.544;22.966;2023-10-31T12:13:53;93535.13;;;22.68;33.46
10079;BME280;5078;42.544;22.966;2023-10-31T12:16:25;93530.50;;;22.64;33.49
10079;BME280;5078;42.544;22.966;2023-10-31T12:18:56;93541.06;;;22.65;33.72
10079;BME280;5078;42.544;22.966;2023-10-31T12:21:39;93526.53;;;22.76;33.79
10079;BME280;5078;42.544;22.966;2023-10-31T12:24:08;93522.97;;;22.71;33.40
10079;BME280;5078;42.544;22.966;2023-10-31T12:26:36;93528.03;;;22.57;33.32
10079;BME280;5078;42.544;22.966;2023-10-31T12:29:10;93526.13;;;22.57;33.42
10079;BME280;5078;42.544;22.966;2023-10-31T12:31:42;93529.00;;;22.46;32.55
10079;BME280;5078;42.544;22.966;2023-10-31T12:34:09;93509.81;;;22.15;33.08
10079;BME280;5078;42.544;22.966;2023-10-31T12:36:36;93523.81;;;21.85;33.92
10079;BME280;5078;42.544;22.966;2023-10-31T12:39:04;93519.78;;;22.14;32.87
10079;BME280;5078;42.544;22.966;2023-10-31T12:41:33;93517.28;;;22.08;33.45
10079;BME280;5078;42.544;22.966;2023-10-31T12:44:00;93532.88;;;22.01;33.60
10079;BME280;5078;42.544;22.966;2023-10-31T12:46:28;93494.28;;;21.51;34.27
10079;BME280;5078;42.544;22.966;2023-10-31T12:48:57;93515.94;;;21.83;34.10
10079;BME280;5078;42.544;22.966;2023-10-31T12:51:24;93526.69;;;21.78;34.35
10079;BME280;5078;42.544;22.966;2023-10-31T12:53:52;93525.66;;;21.57;34.79
10079;BME280;5078;42.544;22.966;2023-10-31T12:56:36;93506.72;;;21.52;34.59
10079;BME280;5078;42.544;22.966;2023-10-31T12:59:05;93520.06;;;21.64;34.61
10079;BME280;5078;42.544;22.966;2023-10-31T13:01:33;93514.84;;;21.79;34.62